createdAt,value
2022-12-19T00:00:09.721Z,21.33
2022-12-19T00:03:18.211Z,20.55
2022-12-19T00:06:21.564Z,22.88
2022-12-19T00:09:24.905Z,19.67
2022-12-19T00:12:27.754Z,19.85
2022-12-19T00:15:30.590Z,21.65
2022-12-19T00:18:33.808Z,22.38
2022-12-19T00:21:37.113Z,23.58
2022-12-19T00:24:39.919Z,21.23
2022-12-19T00:27:42.890Z,21.08
2022-12-19T00:30:45.762Z,22.48
2022-12-19T00:33:49.825Z,21.90
2022-12-19T00:36:52.613Z,22.17
2022-12-19T00:39:55.528Z,24.63
2022-12-19T00:42:58.269Z,22.08
2022-12-19T00:46:09.745Z,23.10
2022-12-19T00:49:12.960Z,21.85
2022-12-19T00:52:15.791Z,21.08
2022-12-19T00:55:19.451Z,21.57
2022-12-19T00:58:23.797Z,22.08
2022-12-19T01:01:30.063Z,22.50
2022-12-19T01:04:36.877Z,21.15
2022-12-19T01:07:47.242Z,22.50
2022-12-19T01:10:50.657Z,24.07
2022-12-19T01:13:53.370Z,21.67
2022-12-19T01:16:56.058Z,19.80
2022-12-19T01:19:58.800Z,25.95
2022-12-19T01:23:01.600Z,22.50
2022-12-19T01:26:04.565Z,22.70
2022-12-19T01:29:07.369Z,20.95
2022-12-19T01:32:10.322Z,22.23
2022-12-19T01:35:21.255Z,23.60
2022-12-19T01:38:24.931Z,21.52
2022-12-19T01:41:27.868Z,26.87
2022-12-19T01:44:31.794Z,20.60
2022-12-19T01:47:53.636Z,20.75
2022-12-19T01:51:02.651Z,22.27
2022-12-19T01:54:09.156Z,21.52
2022-12-19T01:57:15.784Z,23.70
2022-12-19T02:00:19.099Z,23.60
2022-12-19T02:03:28.228Z,25.58
2022-12-19T02:06:33.077Z,26.85
2022-12-19T02:09:37.410Z,21.70
2022-12-19T02:12:43.583Z,19.80
2022-12-19T02:16:02.042Z,25.58
2022-12-19T02:19:08.929Z,22.67
2022-12-19T02:22:42.124Z,23.10
2022-12-19T02:25:56.572Z,24.65
2022-12-19T02:29:16.537Z,30.67
2022-12-19T02:32:31.167Z,17.80
2022-12-19T02:35:57.606Z,21.80
2022-12-19T02:39:09.112Z,18.38
2022-12-19T02:42:18.347Z,26.27
2022-12-19T02:45:28.829Z,22.07
2022-12-19T02:48:33.975Z,23.08
2022-12-19T02:51:36.904Z,22.55
2022-12-19T02:54:40.717Z,23.83
2022-12-19T02:58:14.239Z,25.05
2022-12-19T03:01:43.356Z,26.90
2022-12-19T03:04:55.643Z,22.73
2022-12-19T03:08:11.994Z,21.98
2022-12-19T03:11:16.287Z,22.80
2022-12-19T03:14:24.030Z,24.50
2022-12-19T03:17:36.817Z,22.80
2022-12-19T03:20:55.245Z,23.55
2022-12-19T03:23:59.121Z,24.92
2022-12-19T03:27:09.213Z,27.00
2022-12-19T03:30:14.253Z,25.15
2022-12-19T03:33:19.170Z,24.50
2022-12-19T03:36:28.359Z,25.63
2022-12-19T03:39:32.639Z,26.83
2022-12-19T03:42:58.595Z,26.67
2022-12-19T03:46:11.003Z,25.10
2022-12-19T03:49:14.306Z,26.23
2022-12-19T03:52:28.673Z,27.95
2022-12-19T03:55:41.327Z,27.20
2022-12-19T03:58:52.471Z,32.92
2022-12-19T04:01:55.936Z,30.50
2022-12-19T04:05:12.331Z,25.70
2022-12-19T04:08:16.748Z,29.83
2022-12-19T04:11:20.825Z,32.72
2022-12-19T04:14:35.782Z,36.05
2022-12-19T04:17:57.629Z,39.22
2022-12-19T04:21:22.635Z,26.87
2022-12-19T04:24:31.271Z,22.25
2022-12-19T04:27:36.070Z,21.92
2022-12-19T04:30:41.476Z,24.52
2022-12-19T04:33:44.679Z,24.27
2022-12-19T04:36:49.095Z,22.63
2022-12-19T04:39:52.088Z,23.25
2022-12-19T04:42:54.879Z,21.33
2022-12-19T04:45:58.011Z,21.92
2022-12-19T04:49:01.896Z,25.50
2022-12-19T04:52:05.028Z,24.43
2022-12-19T04:55:09.543Z,21.25
2022-12-19T04:58:16.325Z,20.17
2022-12-19T05:01:21.906Z,24.33
2022-12-19T05:04:25.034Z,23.00
2022-12-19T05:07:28.293Z,24.53
2022-12-19T05:10:31.562Z,25.08
2022-12-19T05:13:34.637Z,24.35
2022-12-19T05:16:37.453Z,23.80
2022-12-19T05:19:40.519Z,20.50
2022-12-19T05:22:43.254Z,19.80
2022-12-19T05:25:46.334Z,20.67
2022-12-19T05:28:50.217Z,20.13
2022-12-19T05:31:53.372Z,21.77
2022-12-19T05:34:56.127Z,22.02
2022-12-19T05:37:59.013Z,20.17
2022-12-19T05:41:08.164Z,21.42
2022-12-19T05:44:10.899Z,23.15
2022-12-19T05:47:13.782Z,24.05
2022-12-19T05:50:18.202Z,23.38
2022-12-19T05:53:30.064Z,25.23
2022-12-19T05:56:32.891Z,20.98
2022-12-19T05:59:35.630Z,20.23
2022-12-19T06:02:38.837Z,19.83
2022-12-19T06:05:47.470Z,25.02
2022-12-19T06:08:58.891Z,21.33
2022-12-19T06:12:01.643Z,26.48
2022-12-19T06:15:04.761Z,23.58
2022-12-19T06:18:07.498Z,21.08
2022-12-19T06:21:15.992Z,21.77
2022-12-19T06:24:18.857Z,20.50
2022-12-19T06:27:21.664Z,17.42
2022-12-19T06:30:24.866Z,20.63
2022-12-19T06:33:29.760Z,22.98
2022-12-19T06:36:32.641Z,25.08
2022-12-19T06:39:35.642Z,20.33
2022-12-19T06:42:38.514Z,21.15
2022-12-19T06:45:41.380Z,22.95
2022-12-19T06:48:46.025Z,11.85
2022-12-19T06:51:49.901Z,19.95
2022-12-19T06:54:53.438Z,21.10
2022-12-19T06:57:56.442Z,21.20
2022-12-19T07:01:01.678Z,21.58
2022-12-19T07:04:14.957Z,19.85
2022-12-19T07:07:17.855Z,21.98
2022-12-19T07:10:20.733Z,23.67
2022-12-19T07:13:23.751Z,21.40
2022-12-19T07:16:27.551Z,19.27
2022-12-19T07:19:33.427Z,23.65
2022-12-19T07:22:37.702Z,22.55
2022-12-19T07:25:40.880Z,20.07
2022-12-19T07:28:47.909Z,20.27
2022-12-19T07:31:51.101Z,20.30
2022-12-19T07:34:56.210Z,23.92
2022-12-19T07:38:06.987Z,20.48
2022-12-19T07:41:10.029Z,21.50
2022-12-19T07:44:13.595Z,20.63
2022-12-19T07:47:16.420Z,21.15
2022-12-19T07:50:19.290Z,24.65
2022-12-19T07:53:22.163Z,22.80
2022-12-19T07:56:25.190Z,24.63
2022-12-19T07:59:32.232Z,25.08
2022-12-19T08:02:39.336Z,24.55
2022-12-19T08:05:43.407Z,24.42
2022-12-19T08:08:46.494Z,23.73
2022-12-19T08:11:51.638Z,21.30
2022-12-19T08:14:57.402Z,19.92
2022-12-19T08:18:00.471Z,21.73
2022-12-19T08:21:03.716Z,24.95
2022-12-19T08:24:06.923Z,23.55
2022-12-19T08:27:10.063Z,23.83
2022-12-19T08:30:15.137Z,26.38
2022-12-19T08:33:20.389Z,24.35
2022-12-19T08:36:26.089Z,25.27
2022-12-19T08:39:29.611Z,21.02
2022-12-19T08:42:33.772Z,22.80
2022-12-19T08:45:36.611Z,22.10
2022-12-19T08:48:39.720Z,23.23
2022-12-19T08:51:42.587Z,21.40
2022-12-19T08:54:45.679Z,22.38
2022-12-19T08:57:48.669Z,20.53
2022-12-19T09:00:57.628Z,20.75
2022-12-19T09:05:35.826Z,22.40
2022-12-19T09:07:31.907Z,23.83
2022-12-19T09:10:42.325Z,22.75
2022-12-19T09:13:46.777Z,24.17
2022-12-19T09:16:49.739Z,22.10
2022-12-19T09:19:52.602Z,21.33
2022-12-19T09:22:55.531Z,24.65
2022-12-19T09:26:04.042Z,22.83
2022-12-19T09:29:20.823Z,21.77
2022-12-19T09:32:25.232Z,21.13
2022-12-19T09:35:30.463Z,19.85
2022-12-19T09:38:36.581Z,19.55
2022-12-19T09:42:03.888Z,21.45
2022-12-19T09:45:20.439Z,24.83
2022-12-19T09:48:35.089Z,21.67
2022-12-19T09:51:49.218Z,19.92
2022-12-19T09:54:56.071Z,19.38
2022-12-19T09:58:14.337Z,22.33
2022-12-19T10:01:31.129Z,19.37
2022-12-19T10:04:40.003Z,21.08
2022-12-19T10:08:07.681Z,21.30
2022-12-19T10:12:38.647Z,21.38
2022-12-19T10:14:50.727Z,21.88
2022-12-19T10:18:12.234Z,22.97
2022-12-19T10:21:37.164Z,23.27
2022-12-19T10:25:38.306Z,20.92
2022-12-19T10:29:11.079Z,21.98
2022-12-19T10:32:19.116Z,21.83
2022-12-19T10:35:26.864Z,19.60
2022-12-19T10:38:51.281Z,22.25
2022-12-19T10:42:21.862Z,22.92
2022-12-19T10:45:33.141Z,20.25
2022-12-19T10:48:35.925Z,21.83
2022-12-19T10:51:42.081Z,21.23
2022-12-19T10:54:48.979Z,22.95
2022-12-19T10:57:51.927Z,22.80
2022-12-19T11:01:05.297Z,21.70
2022-12-19T11:04:33.141Z,22.88
2022-12-19T11:07:37.821Z,23.30
2022-12-19T11:12:19.909Z,25.67
2022-12-19T11:19:14.332Z,24.73
2022-12-19T11:25:16.852Z,23.58
2022-12-19T11:29:55.809Z,24.23
2022-12-19T11:30:39.085Z,24.03
2022-12-19T11:32:50.269Z,23.52
2022-12-19T11:35:59.185Z,22.90
2022-12-19T11:39:03.531Z,24.95
2022-12-19T11:42:31.194Z,23.63
2022-12-19T11:45:57.974Z,26.33
2022-12-19T11:49:23.832Z,26.73
2022-12-19T11:56:15.955Z,25.98
2022-12-19T11:59:27.575Z,27.13
2022-12-19T12:02:36.529Z,27.95
2022-12-19T12:05:50.091Z,29.00
2022-12-19T12:12:40.212Z,27.88
2022-12-19T12:20:52.414Z,26.67
2022-12-19T12:29:39.833Z,28.00
2022-12-19T12:31:05.879Z,30.40
2022-12-19T12:31:54.270Z,33.50
2022-12-19T12:32:03.742Z,36.38
2022-12-19T12:35:31.715Z,33.10
2022-12-19T12:37:54.133Z,29.53
2022-12-19T12:39:33.578Z,32.50
2022-12-19T12:47:53.579Z,33.55
2022-12-19T12:50:59.167Z,32.88
2022-12-19T12:54:08.339Z,29.20
2022-12-19T12:57:30.078Z,32.15
2022-12-19T13:00:36.648Z,33.85
2022-12-19T13:03:42.792Z,30.30
2022-12-19T13:06:52.083Z,26.75
2022-12-19T13:10:18.053Z,31.30
2022-12-19T13:13:40.780Z,29.13
2022-12-19T13:16:43.623Z,30.30
2022-12-19T13:20:35.052Z,32.58
2022-12-19T13:23:38.362Z,29.63
2022-12-19T13:26:51.115Z,30.53
2022-12-19T13:30:00.249Z,32.08
2022-12-19T13:33:03.202Z,31.45
2022-12-19T13:39:51.848Z,30.23
2022-12-19T13:40:34.403Z,28.05
2022-12-19T13:43:47.973Z,26.30
2022-12-19T13:46:51.006Z,27.25
2022-12-19T13:49:54.899Z,29.08
2022-12-19T13:52:57.791Z,29.40
2022-12-19T13:56:06.832Z,29.08
2022-12-19T13:59:09.772Z,26.90
2022-12-19T14:02:25.813Z,28.67
2022-12-19T14:06:17.897Z,28.60
2022-12-19T14:10:07.576Z,29.00
2022-12-19T14:13:59.121Z,29.30
2022-12-19T14:16:20.050Z,27.53
2022-12-19T14:19:25.654Z,28.42
2022-12-19T14:22:33.718Z,29.13
2022-12-19T14:28:15.352Z,28.42
2022-12-19T14:29:15.279Z,29.52
2022-12-19T14:33:44.055Z,28.50
2022-12-19T14:36:12.267Z,29.50
2022-12-19T14:39:28.427Z,28.75
2022-12-19T14:43:59.202Z,30.10
2022-12-19T14:52:35.433Z,29.52
2022-12-19T14:54:28.275Z,28.20
2022-12-19T14:54:50.610Z,28.98
2022-12-19T14:56:59.518Z,32.50
2022-12-19T15:00:50.623Z,29.10
2022-12-19T15:04:52.576Z,32.55
2022-12-19T15:07:31.974Z,32.27
2022-12-19T15:11:05.453Z,28.92
2022-12-19T15:14:52.405Z,30.65
2022-12-19T15:17:25.991Z,27.00
2022-12-19T15:20:28.769Z,28.77
2022-12-19T15:23:32.598Z,30.10
2022-12-19T15:26:46.170Z,30.00
2022-12-19T15:29:49.848Z,31.73
2022-12-19T15:32:52.839Z,29.73
2022-12-19T15:35:55.892Z,27.27
2022-12-19T15:38:58.728Z,29.47
2022-12-19T15:42:02.140Z,28.02
2022-12-19T15:45:05.356Z,28.05
2022-12-19T15:48:14.040Z,29.98
2022-12-19T15:51:16.980Z,29.88
2022-12-19T15:57:56.021Z,27.45
2022-12-19T16:01:04.471Z,31.90
2022-12-19T16:04:13.577Z,31.27
2022-12-19T16:07:25.568Z,33.38
2022-12-19T16:10:29.036Z,37.60
2022-12-19T16:13:35.518Z,30.10
2022-12-19T16:16:38.562Z,35.60
2022-12-19T16:19:41.673Z,36.10
2022-12-19T16:22:44.793Z,35.50
2022-12-19T16:25:52.529Z,35.30
2022-12-19T16:28:55.353Z,33.85
2022-12-19T16:31:58.294Z,31.40
2022-12-19T16:35:01.180Z,31.55
2022-12-19T16:38:04.091Z,35.75
2022-12-19T16:41:18.394Z,35.63
2022-12-19T16:44:23.569Z,37.15
2022-12-19T16:47:26.476Z,37.40
2022-12-19T16:50:31.366Z,38.22
2022-12-19T16:53:34.287Z,37.70
2022-12-19T16:56:41.133Z,36.33
2022-12-19T16:59:44.617Z,38.30
2022-12-19T17:02:51.866Z,38.00
2022-12-19T17:05:54.962Z,39.30
2022-12-19T17:08:57.787Z,37.08
2022-12-19T17:12:02.136Z,38.37
2022-12-19T17:15:14.194Z,42.08
2022-12-19T17:18:32.070Z,38.72
2022-12-19T17:21:34.857Z,36.35
2022-12-19T17:24:38.163Z,38.95
2022-12-19T17:27:40.972Z,39.93
2022-12-19T17:30:51.384Z,35.05
2022-12-19T17:33:58.389Z,36.65
2022-12-19T17:37:04.700Z,29.63
2022-12-19T17:40:20.287Z,30.80
2022-12-19T17:43:23.163Z,34.93
2022-12-19T17:46:26.346Z,29.13
2022-12-19T17:49:33.176Z,38.58
2022-12-19T17:52:36.639Z,32.35
2022-12-19T17:55:39.713Z,30.25
2022-12-19T17:58:43.481Z,33.70
2022-12-19T18:01:49.398Z,35.40
2022-12-19T18:04:52.968Z,33.20
2022-12-19T18:07:55.881Z,33.08
2022-12-19T18:11:01.441Z,32.60
2022-12-19T18:14:04.370Z,28.67
2022-12-19T18:17:07.366Z,27.63
2022-12-19T18:20:32.591Z,28.98
2022-12-19T18:23:35.542Z,28.35
2022-12-19T18:26:38.477Z,30.58
2022-12-19T18:29:41.436Z,19.97
2022-12-19T18:32:46.571Z,25.63
2022-12-19T18:35:50.631Z,26.20
2022-12-19T18:38:55.204Z,28.73
2022-12-19T18:41:58.084Z,30.58
2022-12-19T18:45:00.888Z,28.80
2022-12-19T18:48:08.046Z,26.00
2022-12-19T18:51:16.769Z,27.13
2022-12-19T18:54:22.376Z,28.60
2022-12-19T18:57:25.317Z,23.80
2022-12-19T19:00:28.345Z,26.43
2022-12-19T19:03:37.972Z,23.90
2022-12-19T19:06:50.402Z,24.35
2022-12-19T19:09:54.663Z,23.92
2022-12-19T19:13:25.806Z,23.58
2022-12-19T19:16:28.923Z,24.17
2022-12-19T19:19:31.936Z,25.23
2022-12-19T19:22:35.499Z,26.85
2022-12-19T19:25:38.418Z,22.58
2022-12-19T19:28:41.322Z,25.15
2022-12-19T19:31:47.832Z,25.07
2022-12-19T19:34:51.257Z,23.10
2022-12-19T19:37:59.500Z,25.70
2022-12-19T19:41:02.345Z,24.90
2022-12-19T19:44:05.190Z,23.52
2022-12-19T19:47:08.232Z,23.17
2022-12-19T19:50:12.695Z,26.55
2022-12-19T19:53:15.527Z,24.63
2022-12-19T19:56:18.380Z,24.88
2022-12-19T19:59:22.194Z,21.70
2022-12-19T20:02:25.147Z,25.97
2022-12-19T20:05:27.997Z,21.33
2022-12-19T20:08:37.052Z,23.73
2022-12-19T20:11:42.059Z,23.23
2022-12-19T20:14:45.044Z,20.50
2022-12-19T20:17:48.194Z,20.63
2022-12-19T20:20:51.470Z,22.73
2022-12-19T20:23:54.619Z,20.75
2022-12-19T20:26:58.366Z,22.10
2022-12-19T20:30:01.225Z,20.45
2022-12-19T20:33:04.089Z,21.90
2022-12-19T20:36:09.475Z,21.75
2022-12-19T20:39:12.748Z,22.48
2022-12-19T20:42:15.574Z,20.05
2022-12-19T20:45:18.297Z,22.48
2022-12-19T20:48:21.610Z,22.40
2022-12-19T20:51:24.685Z,23.02
2022-12-19T20:54:27.612Z,22.90
2022-12-19T20:57:30.679Z,22.08
2022-12-19T21:00:33.537Z,24.58
2022-12-19T21:03:37.129Z,22.80
2022-12-19T21:06:41.453Z,23.48
2022-12-19T21:09:45.072Z,27.08
2022-12-19T21:12:48.288Z,23.17
2022-12-19T21:15:55.775Z,26.00
2022-12-19T21:18:58.690Z,26.17
2022-12-19T21:22:01.504Z,23.65
2022-12-19T21:25:05.033Z,24.33
2022-12-19T21:28:08.713Z,26.45
2022-12-19T21:31:28.056Z,26.88
2022-12-19T21:34:30.855Z,26.27
2022-12-19T21:37:38.325Z,26.73
2022-12-19T21:40:44.813Z,22.15
2022-12-19T21:43:51.788Z,27.63
2022-12-19T21:46:54.747Z,24.00
2022-12-19T21:49:57.545Z,28.47
2022-12-19T21:53:01.266Z,23.35
2022-12-19T21:56:25.375Z,28.52
2022-12-19T21:59:28.223Z,22.60
2022-12-19T22:02:31.213Z,22.02
2022-12-19T22:05:34.129Z,23.27
2022-12-19T22:08:37.212Z,24.67
2022-12-19T22:11:40.516Z,28.25
2022-12-19T22:14:43.831Z,26.08
2022-12-19T22:17:46.630Z,28.48
2022-12-19T22:20:49.688Z,24.13
2022-12-19T22:23:53.031Z,26.60
2022-12-19T22:26:56.209Z,26.45
2022-12-19T22:30:02.130Z,25.23
2022-12-19T22:33:07.758Z,28.40
2022-12-19T22:36:15.225Z,27.30
2022-12-19T22:39:20.712Z,29.30
2022-12-19T22:42:23.859Z,28.38
2022-12-19T22:45:29.818Z,28.70
2022-12-19T22:48:32.748Z,29.25
2022-12-19T22:51:36.735Z,26.83
2022-12-19T22:54:39.595Z,25.15
2022-12-19T22:57:42.410Z,28.13
2022-12-19T23:00:47.429Z,30.35
2022-12-19T23:03:52.310Z,28.40
2022-12-19T23:06:55.227Z,24.40
2022-12-19T23:09:58.033Z,24.00
2022-12-19T23:13:00.907Z,24.45
2022-12-19T23:16:04.102Z,24.88
2022-12-19T23:19:09.278Z,27.63
2022-12-19T23:22:12.106Z,24.03
2022-12-19T23:25:15.002Z,26.33
2022-12-19T23:28:19.785Z,29.50
2022-12-19T23:31:23.378Z,25.38
2022-12-19T23:34:26.137Z,27.10
2022-12-19T23:37:28.942Z,27.23
2022-12-19T23:40:31.883Z,25.67
2022-12-19T23:43:36.708Z,24.55
2022-12-19T23:46:40.265Z,22.13
2022-12-19T23:49:42.992Z,21.95
2022-12-19T23:52:46.745Z,21.97
2022-12-19T23:55:50.282Z,21.52
2022-12-19T23:58:53.315Z,20.73
